Time;durP1;ratioP1;P1;durP2;ratioP2;P2;SDS_P1;SDS_P2;PMS_P1;PMS_P2;Temp;Humidity;BMP_temperature;BMP_pressure;BME280_temperature;BME280_humidity;BME280_pressure;Samples;Min_cycle;Max_cycle;Signal;HPM_P1;HPM_P2
2023/08/15 00:01:36;;;;;;;8.15;4.95;;;22.60;89.00;;;;;;5098948;28;20039;-77
2023/08/15 00:04:02;;;;;;;8.00;5.40;;;22.60;89.20;;;;;;5082494;28;20058;-78
2023/08/15 00:06:28;;;;;;;8.18;4.97;;;22.70;89.50;;;;;;5116213;28;20051;-78
2023/08/15 00:08:54;;;;;;;8.82;5.82;;;22.70;89.60;;;;;;5133888;28;20101;-78
2023/08/15 00:11:23;;;;;;;10.75;5.13;;;22.70;89.60;;;;;;5099037;28;20016;-77
2023/08/15 00:13:49;;;;;;;8.18;4.90;;;22.80;90.20;;;;;;5116040;28;20031;-77
2023/08/15 00:16:15;;;;;;;8.70;4.82;;;22.80;89.50;;;;;;5133862;28;20028;-78
2023/08/15 00:18:41;;;;;;;7.38;5.22;;;22.90;89.60;;;;;;5133805;28;20023;-77
2023/08/15 00:21:07;;;;;;;7.28;4.93;;;22.90;89.60;;;;;;5115711;28;20031;-78
2023/08/15 00:23:32;;;;;;;10.63;5.70;;;22.90;89.60;;;;;;5115832;28;20027;-78
2023/08/15 00:25:58;;;;;;;9.30;5.40;;;22.90;89.90;;;;;;5115912;28;20012;-78
2023/08/15 00:28:23;;;;;;;10.70;5.68;;;22.80;90.00;;;;;;5115668;28;20031;-78
2023/08/15 00:30:50;;;;;;;10.85;6.00;;;22.80;90.00;;;;;;5102184;28;20095;-78
2023/08/15 00:33:15;;;;;;;9.30;5.90;;;22.80;90.20;;;;;;5102860;28;20031;-78
2023/08/15 00:35:44;;;;;;;10.10;6.00;;;22.80;90.30;;;;;;5085952;28;20095;-77
2023/08/15 00:38:10;;;;;;;8.80;6.63;;;22.80;90.40;;;;;;5119780;28;20028;-77
2023/08/15 00:40:40;;;;;;;11.20;6.95;;;22.80;90.60;;;;;;5137695;28;20036;-78
2023/08/15 00:43:06;;;;;;;9.60;5.85;;;22.80;90.80;;;;;;5102535;28;20049;-78
2023/08/15 00:45:34;;;;;;;8.38;6.32;;;22.80;91.00;;;;;;5119616;28;20058;-78
2023/08/15 00:47:59;;;;;;;10.60;5.75;;;22.80;91.20;;;;;;5119766;28;20031;-78
2023/08/15 00:50:25;;;;;;;10.20;6.15;;;22.80;91.30;;;;;;5102383;28;20024;-78
2023/08/15 00:52:52;;;;;;;10.85;6.35;;;22.80;91.40;;;;;;5119470;28;20023;-78
2023/08/15 00:55:18;;;;;;;10.98;6.07;;;22.80;91.60;;;;;;5085812;28;20398;-78
2023/08/15 00:57:44;;;;;;;10.20;6.60;;;22.80;91.70;;;;;;5102398;28;20020;-78
2023/08/15 01:00:11;;;;;;;10.70;6.40;;;22.80;91.80;;;;;;5137251;28;20382;-77
2023/08/15 01:02:38;;;;;;;14.02;6.80;;;22.80;92.10;;;;;;5119322;28;20067;-78
2023/08/15 01:05:05;;;;;;;13.68;6.85;;;22.70;92.30;;;;;;5119101;28;20061;-78
2023/08/15 01:07:31;;;;;;;9.50;6.40;;;22.70;92.50;;;;;;5119210;28;20027;-78
2023/08/15 01:09:56;;;;;;;12.52;6.53;;;22.60;92.50;;;;;;5137114;28;20048;-78
2023/08/15 01:12:41;;;;;;;8.65;6.57;;;22.60;92.50;;;;;;5119146;28;20023;-77
2023/08/15 01:15:13;;;;;;;11.85;6.18;;;22.70;92.50;;;;;;5119010;28;20016;-78
2023/08/15 01:17:53;;;;;;;;;;;22.70;92.50;;;;;;5119394;28;20019;-78
2023/08/15 01:20:26;;;;;;;10.90;6.32;;;22.70;92.30;;;;;;5118838;28;19904;-77
2023/08/15 01:22:53;;;;;;;10.98;6.57;;;22.60;92.50;;;;;;5136885;28;20057;-77
2023/08/15 01:25:18;;;;;;;9.93;6.20;;;22.60;92.60;;;;;;5136660;28;20052;-78
2023/08/15 01:27:44;;;;;;;8.50;5.72;;;22.60;92.60;;;;;;5118882;28;20055;-77
2023/08/15 01:30:11;;;;;;;7.88;5.70;;;22.70;92.50;;;;;;5101718;28;20095;-78
2023/08/15 01:32:50;;;;;;;10.68;5.60;;;22.70;92.40;;;;;;5101982;28;20045;-78
2023/08/15 01:35:19;;;;;;;10.70;5.60;;;22.80;92.30;;;;;;5118435;28;20020;-78
2023/08/15 01:37:52;;;;;;;10.60;6.10;;;22.80;92.20;;;;;;5136562;28;20031;-77
2023/08/15 01:40:20;;;;;;;12.80;6.32;;;22.80;92.10;;;;;;5118513;28;20028;-77
2023/08/15 01:42:49;;;;;;;10.90;6.75;;;22.70;92.10;;;;;;5100786;28;20050;-77
2023/08/15 01:45:15;;;;;;;9.60;6.57;;;22.70;92.10;;;;;;5136359;28;20114;-77
2023/08/15 01:47:40;;;;;;;9.73;6.20;;;22.60;92.20;;;;;;5118264;28;20036;-77
2023/08/15 01:50:07;;;;;;;11.35;6.38;;;22.60;92.40;;;;;;5101311;28;20027;-77
2023/08/15 01:52:32;;;;;;;7.35;5.63;;;22.50;92.60;;;;;;5101427;28;20024;-77
2023/08/15 01:54:58;;;;;;;9.85;6.13;;;22.30;92.40;;;;;;5101272;28;20051;-77
2023/08/15 01:57:23;;;;;;;6.85;5.45;;;22.20;92.40;;;;;;5118213;28;20088;-77
2023/08/15 01:59:49;;;;;;;10.68;5.45;;;22.20;92.30;;;;;;5084470;28;20047;-77
2023/08/15 02:02:15;;;;;;;9.75;5.53;;;22.10;92.20;;;;;;5101001;28;20124;-77
2023/08/15 02:04:40;;;;;;;9.55;5.22;;;22.10;92.00;;;;;;5118162;28;20027;-77
2023/08/15 02:07:06;;;;;;;10.23;5.03;;;22.00;91.90;;;;;;5101073;28;20023;-77
2023/08/15 02:09:31;;;;;;;10.40;5.55;;;22.00;91.80;;;;;;5135873;28;20036;-77
2023/08/15 02:11:57;;;;;;;8.80;5.18;;;22.00;91.50;;;;;;5117896;28;20019;-77
2023/08/15 02:14:23;;;;;;;8.63;4.88;;;22.00;91.40;;;;;;5135854;28;20034;-77
2023/08/15 02:16:48;;;;;;;9.98;4.70;;;22.00;91.10;;;;;;5100922;28;20020;-77
2023/08/15 02:19:14;;;;;;;9.38;5.18;;;21.90;91.00;;;;;;5100824;28;20090;-77
2023/08/15 02:21:39;;;;;;;11.32;4.72;;;21.90;91.00;;;;;;5117704;28;20031;-77
2023/08/15 02:24:05;;;;;;;9.63;5.35;;;21.90;90.80;;;;;;5100715;28;20035;-77
2023/08/15 02:26:31;;;;;;;6.93;3.65;;;21.90;91.10;;;;;;5083938;28;20043;-77
2023/08/15 02:28:57;;;;;;;8.60;4.45;;;21.80;89.80;;;;;;5100608;28;20083;-77
2023/08/15 02:31:26;;;;;;;8.57;3.40;;;21.70;89.70;;;;;;5117689;28;20012;-77
2023/08/15 02:33:51;;;;;;;8.35;3.20;;;21.60;88.50;;;;;;5117384;28;20031;-78
2023/08/15 02:36:17;;;;;;;7.25;3.50;;;21.60;88.60;;;;;;5100443;28;20028;-77
2023/08/15 02:38:43;;;;;;;8.68;3.10;;;21.60;88.40;;;;;;5100467;28;20031;-77
2023/08/15 02:41:08;;;;;;;7.70;2.80;;;21.60;87.60;;;;;;5117317;28;20048;-77
2023/08/15 02:43:34;;;;;;;6.93;3.13;;;21.50;87.30;;;;;;5100247;28;20031;-78
2023/08/15 02:45:59;;;;;;;9.55;3.10;;;21.50;87.00;;;;;;5083651;28;20027;-77
2023/08/15 02:48:25;;;;;;;7.82;3.13;;;21.50;86.70;;;;;;5100232;28;20091;-77
2023/08/15 02:50:51;;;;;;;5.55;2.50;;;21.50;86.80;;;;;;5117084;28;20028;-78
2023/08/15 02:53:16;;;;;;;8.45;3.10;;;21.60;86.60;;;;;;5117208;28;20055;-78
2023/08/15 02:55:42;;;;;;;4.40;2.70;;;21.60;86.50;;;;;;5100036;28;20109;-77
2023/08/15 02:58:07;;;;;;;7.50;2.70;;;21.60;86.40;;;;;;5117061;28;20028;-77
2023/08/15 03:00:35;;;;;;;8.10;2.72;;;21.60;86.10;;;;;;5099761;28;20060;-78
2023/08/15 03:03:01;;;;;;;6.00;2.63;;;21.60;85.90;;;;;;5116950;28;20031;-77
2023/08/15 03:05:26;;;;;;;4.47;2.60;;;21.60;85.70;;;;;;5099978;28;20036;-77
2023/08/15 03:07:52;;;;;;;6.55;2.47;;;21.60;85.50;;;;;;5099759;28;20054;-78
2023/08/15 03:10:18;;;;;;;5.80;2.90;;;21.50;85.60;;;;;;5116712;28;20452;-77
2023/08/15 03:12:44;;;;;;;6.82;3.08;;;21.40;86.20;;;;;;5116840;28;20066;-78
2023/08/15 03:15:09;;;;;;;8.23;3.50;;;21.30;86.60;;;;;;5083165;28;20087;-78
2023/08/15 03:17:35;;;;;;;8.35;3.50;;;21.30;87.10;;;;;;5116564;28;20122;-78
2023/08/15 03:20:01;;;;;;;10.38;4.32;;;21.20;87.40;;;;;;5082876;28;20027;-78
2023/08/15 03:22:26;;;;;;;9.13;3.85;;;21.20;87.50;;;;;;5116674;28;20038;-78
2023/08/15 03:24:52;;;;;;;9.32;3.92;;;21.20;87.70;;;;;;5099513;28;20039;-77
2023/08/15 03:27:17;;;;;;;10.07;3.75;;;21.10;88.10;;;;;;5116726;28;20032;-77
2023/08/15 03:29:43;;;;;;;6.72;3.42;;;21.10;88.20;;;;;;5116344;28;20081;-77
2023/08/15 03:32:09;;;;;;;8.93;3.60;;;21.00;88.40;;;;;;5116504;28;20020;-77
2023/08/15 03:34:34;;;;;;;7.65;3.58;;;20.90;88.60;;;;;;5116222;28;20414;-77
2023/08/15 03:37:00;;;;;;;6.65;3.63;;;20.80;89.00;;;;;;5134338;28;20125;-77
2023/08/15 03:39:26;;;;;;;6.43;3.25;;;20.80;89.20;;;;;;5099327;28;20031;-78
2023/08/15 03:41:52;;;;;;;7.78;3.58;;;20.80;89.30;;;;;;5116114;28;20020;-78
2023/08/15 03:44:18;;;;;;;6.40;3.60;;;20.90;89.40;;;;;;5116211;28;20035;-77
2023/08/15 03:46:45;;;;;;;8.55;3.35;;;20.80;89.40;;;;;;5116158;28;20135;-77
2023/08/15 03:49:11;;;;;;;7.68;3.22;;;20.80;89.50;;;;;;5082987;28;20044;-77
2023/08/15 03:51:36;;;;;;;7.57;3.65;;;20.80;89.50;;;;;;5099138;28;20027;-77
2023/08/15 03:54:03;;;;;;;8.05;4.45;;;20.80;89.60;;;;;;5116153;28;20028;-77
2023/08/15 03:56:28;;;;;;;6.90;3.80;;;20.70;89.70;;;;;;5116178;28;20020;-77
2023/08/15 03:58:54;;;;;;;8.50;3.63;;;20.70;89.90;;;;;;5116130;28;20066;-77
2023/08/15 04:01:19;;;;;;;9.68;4.00;;;20.60;90.00;;;;;;5133655;28;20048;-77
2023/08/15 04:03:47;;;;;;;10.95;3.78;;;20.50;90.10;;;;;;5081962;28;20047;-77
2023/08/15 04:06:12;;;;;;;7.32;3.80;;;20.50;90.20;;;;;;5115679;28;20039;-77
2023/08/15 04:08:38;;;;;;;10.38;4.10;;;20.40;90.40;;;;;;5098962;28;20103;-77
2023/08/15 04:11:04;;;;;;;8.30;4.28;;;20.40;90.60;;;;;;5082225;28;20027;-77
2023/08/15 04:13:29;;;;;;;8.23;3.70;;;20.30;90.70;;;;;;5099026;28;20046;-78
2023/08/15 04:15:55;;;;;;;9.15;4.22;;;20.30;90.70;;;;;;5082056;28;20561;-77
2023/08/15 04:18:20;;;;;;;6.35;3.30;;;20.40;90.70;;;;;;5082139;28;20019;-77
2023/08/15 04:20:47;;;;;;;10.73;3.10;;;20.40;90.70;;;;;;5115819;28;20032;-77
2023/08/15 04:23:13;;;;;;;8.50;3.55;;;20.30;90.80;;;;;;5082218;28;20038;-77
2023/08/15 04:25:39;;;;;;;9.27;3.63;;;20.20;91.00;;;;;;5115761;28;20028;-77
2023/08/15 04:28:05;;;;;;;11.93;3.55;;;20.10;91.00;;;;;;5098836;28;20032;-77
2023/08/15 04:30:31;;;;;;;9.25;3.47;;;20.10;91.10;;;;;;5115612;28;20386;-77
2023/08/15 04:33:01;;;;;;;11.25;4.05;;;20.00;91.30;;;;;;5133680;28;20044;-77
2023/08/15 04:35:27;;;;;;;8.13;3.88;;;20.00;91.30;;;;;;5133528;28;20051;-77
2023/08/15 04:37:53;;;;;;;9.80;3.55;;;20.00;91.50;;;;;;5133625;28;20020;-77
2023/08/15 04:40:33;;;;;;;13.57;4.30;;;20.00;91.50;;;;;;5098905;28;20038;-77
2023/08/15 04:42:59;;;;;;;10.10;4.10;;;20.00;91.50;;;;;;5115570;28;20027;-77
2023/08/15 04:45:25;;;;;;;9.30;3.70;;;20.00;91.50;;;;;;5133532;28;20031;-77
2023/08/15 04:47:51;;;;;;;6.82;3.60;;;19.90;91.50;;;;;;5133532;28;20019;-77
2023/08/15 04:50:17;;;;;;;7.28;3.50;;;20.00;91.50;;;;;;5115412;28;20023;-77
2023/08/15 04:52:43;;;;;;;9.05;3.83;;;20.00;91.40;;;;;;5133462;28;20024;-77
2023/08/15 04:55:10;;;;;;;8.73;3.72;;;19.90;91.50;;;;;;5133447;28;20050;-77
2023/08/15 04:57:37;;;;;;;10.50;3.92;;;19.90;91.50;;;;;;5098776;28;20020;-77
2023/08/15 05:00:08;;;;;;;11.82;4.18;;;19.90;91.60;;;;;;5115509;28;20023;-77
2023/08/15 05:02:35;;;;;;;10.15;4.30;;;19.90;91.50;;;;;;5095867;28;20046;-77
2023/08/15 05:05:01;;;;;;;10.27;3.90;;;19.90;91.60;;;;;;5095118;28;20119;-77
2023/08/15 05:07:26;;;;;;;9.65;3.85;;;19.80;91.70;;;;;;5111996;28;20025;-77
2023/08/15 05:09:52;;;;;;;8.00;3.88;;;19.80;91.80;;;;;;5094939;28;20036;-77
2023/08/15 05:12:18;;;;;;;10.40;3.90;;;19.80;91.80;;;;;;5111923;28;20031;-77
2023/08/15 05:14:43;;;;;;;8.68;4.05;;;19.80;91.90;;;;;;5094948;28;20029;-77
2023/08/15 05:17:09;;;;;;;10.73;3.92;;;19.70;92.30;;;;;;5080103;28;20020;-77
2023/08/15 05:19:34;;;;;;;10.77;4.60;;;19.80;92.00;;;;;;5081801;28;20046;-77
2023/08/15 05:22:00;;;;;;;9.27;4.05;;;19.70;92.00;;;;;;5098433;28;20024;-77
2023/08/15 05:24:26;;;;;;;9.55;4.50;;;19.70;92.00;;;;;;5098595;28;20043;-78
2023/08/15 05:26:52;;;;;;;11.13;4.15;;;19.70;92.10;;;;;;5115327;28;20031;-78
2023/08/15 05:29:18;;;;;;;8.15;4.45;;;19.70;92.10;;;;;;5116145;28;20036;-78
2023/08/15 05:31:44;;;;;;;13.07;4.90;;;19.70;92.10;;;;;;5098375;28;20021;-78
2023/08/15 05:34:10;;;;;;;10.23;4.88;;;19.70;92.20;;;;;;5115183;28;20058;-77
2023/08/15 05:36:35;;;;;;;10.60;4.47;;;19.80;92.20;;;;;;5081547;28;20092;-78
2023/08/15 05:39:04;;;;;;;9.48;4.60;;;19.80;92.20;;;;;;5115083;28;20032;-77
2023/08/15 05:41:30;;;;;;;11.27;4.78;;;19.80;92.20;;;;;;5098493;28;20042;-77
2023/08/15 05:43:55;;;;;;;8.68;4.50;;;19.80;92.40;;;;;;5115052;28;20032;-77
2023/08/15 05:46:21;;;;;;;12.93;4.13;;;19.80;92.90;;;;;;5098011;28;20036;-77
2023/08/15 05:48:46;;;;;;;7.65;4.22;;;19.90;92.50;;;;;;5097884;28;20035;-77
2023/08/15 05:51:12;;;;;;;9.45;4.60;;;19.90;92.50;;;;;;5114802;28;20043;-77
2023/08/15 05:53:38;;;;;;;8.63;3.88;;;19.80;92.70;;;;;;5081116;28;20025;-78
2023/08/15 05:56:03;;;;;;;9.65;4.43;;;19.70;92.90;;;;;;5097841;28;20045;-77
2023/08/15 05:58:29;;;;;;;8.38;4.20;;;19.80;92.90;;;;;;5114597;28;20083;-77
2023/08/15 06:00:55;;;;;;;10.38;4.18;;;19.90;93.00;;;;;;5081026;28;20032;-76
2023/08/15 06:03:20;;;;;;;9.95;3.95;;;20.00;93.10;;;;;;5114277;28;20036;-77
2023/08/15 06:05:46;;;;;;;12.57;4.28;;;20.00;93.20;;;;;;5114477;28;20092;-77
2023/08/15 06:08:12;;;;;;;10.82;4.07;;;20.00;93.30;;;;;;5115465;28;20060;-77
2023/08/15 06:10:37;;;;;;;11.07;4.72;;;20.10;93.30;;;;;;5114477;28;20063;-77
2023/08/15 06:13:03;;;;;;;8.27;4.38;;;20.10;93.20;;;;;;5097600;28;20024;-77
2023/08/15 06:15:29;;;;;;;13.43;4.78;;;20.10;93.20;;;;;;5114486;28;20020;-77
2023/08/15 06:17:54;;;;;;;8.68;4.13;;;20.10;93.30;;;;;;5115253;28;20534;-77
2023/08/15 06:20:20;;;;;;;9.30;4.28;;;20.30;93.20;;;;;;5115246;28;20036;-77
2023/08/15 06:22:46;;;;;;;11.15;4.45;;;20.30;93.10;;;;;;5097292;28;20047;-78
2023/08/15 06:25:11;;;;;;;12.52;4.53;;;20.30;93.20;;;;;;5115108;28;20028;-77
2023/08/15 06:27:37;;;;;;;10.75;4.80;;;20.30;93.20;;;;;;5113924;28;20111;-77
2023/08/15 06:30:03;;;;;;;10.95;4.55;;;20.40;93.10;;;;;;5113995;28;20032;-77
2023/08/15 06:32:31;;;;;;;10.10;4.45;;;20.40;93.00;;;;;;5097153;28;20024;-77
2023/08/15 06:34:57;;;;;;;11.05;4.78;;;20.50;93.00;;;;;;5114926;28;20024;-78
2023/08/15 06:37:23;;;;;;;14.18;4.90;;;20.60;93.40;;;;;;5097083;28;20028;-77
2023/08/15 06:39:49;;;;;;;10.70;4.85;;;20.60;93.00;;;;;;5113836;28;20398;-77
2023/08/15 06:42:15;;;;;;;12.63;4.75;;;20.70;92.70;;;;;;5113877;28;20024;-77
2023/08/15 06:44:43;;;;;;;12.55;5.15;;;20.70;92.70;;;;;;5080196;28;20067;-77
2023/08/15 06:47:10;;;;;;;14.02;5.50;;;20.70;92.80;;;;;;5096799;28;20024;-77
2023/08/15 06:49:36;;;;;;;13.68;5.15;;;20.70;92.80;;;;;;5114632;28;20455;-77
2023/08/15 06:52:03;;;;;;;16.00;4.97;;;20.70;92.80;;;;;;5113671;28;20020;-77
2023/08/15 06:54:29;;;;;;;10.35;5.25;;;20.70;92.60;;;;;;5096863;28;20078;-77
2023/08/15 06:56:54;;;;;;;11.02;5.07;;;20.60;92.60;;;;;;5113449;28;20032;-77
2023/08/15 06:59:23;;;;;;;13.68;5.80;;;20.70;92.50;;;;;;5113514;28;20025;-77
2023/08/15 07:01:54;;;;;;;10.38;4.57;;;20.70;92.40;;;;;;5096972;28;20020;-77
2023/08/15 07:04:20;;;;;;;15.00;5.90;;;20.80;92.40;;;;;;5060648;28;20052;-78
2023/08/15 07:06:46;;;;;;;13.63;5.72;;;20.80;92.30;;;;;;5093087;28;20021;-78
2023/08/15 07:09:11;;;;;;;11.02;5.22;;;20.90;92.20;;;;;;5093934;28;20036;-77
2023/08/15 07:11:37;;;;;;;13.32;5.13;;;21.00;92.20;;;;;;5093173;28;20063;-77
2023/08/15 07:14:03;;;;;;;10.80;5.45;;;21.00;92.20;;;;;;5093880;28;20025;-77
2023/08/15 07:16:29;;;;;;;11.65;4.75;;;21.00;92.20;;;;;;5093024;28;20054;-77
2023/08/15 07:18:54;;;;;;;11.90;5.15;;;21.00;92.10;;;;;;5092827;28;20075;-77
2023/08/15 07:21:20;;;;;;;11.50;4.85;;;20.90;92.20;;;;;;5092756;28;20052;-77
2023/08/15 07:23:45;;;;;;;10.90;4.47;;;20.90;92.50;;;;;;5076018;28;20063;-77
2023/08/15 07:26:11;;;;;;;13.75;5.28;;;21.00;92.10;;;;;;5092730;28;20024;-77
2023/08/15 07:28:37;;;;;;;14.73;5.10;;;21.00;92.60;;;;;;5075920;28;20024;-77
2023/08/15 07:31:03;;;;;;;13.20;5.05;;;21.10;92.30;;;;;;5075947;28;20123;-78
2023/08/15 07:33:29;;;;;;;11.85;5.18;;;21.10;92.20;;;;;;5075800;28;20029;-77
2023/08/15 07:35:54;;;;;;;11.50;5.13;;;21.20;92.00;;;;;;5075879;28;20112;-77
2023/08/15 07:38:20;;;;;;;11.32;4.43;;;21.20;92.00;;;;;;5092406;28;20029;-77
2023/08/15 07:40:47;;;;;;;11.98;5.03;;;21.20;91.80;;;;;;5092914;28;20058;-77
2023/08/15 07:43:13;;;;;;;16.05;5.38;;;21.30;91.90;;;;;;5076051;28;20025;-77
2023/08/15 07:45:39;;;;;;;12.18;5.35;;;21.40;91.90;;;;;;5075723;28;20048;-77
2023/08/15 07:48:05;;;;;;;11.63;4.70;;;21.50;91.90;;;;;;5059011;28;20032;-77
2023/08/15 07:50:31;;;;;;;8.95;4.55;;;21.60;91.30;;;;;;5075720;28;20029;-77
2023/08/15 07:52:59;;;;;;;8.73;4.50;;;21.60;91.30;;;;;;5092307;28;20017;-77
2023/08/15 07:55:32;;;;;;;9.38;4.45;;;21.60;91.50;;;;;;5076171;28;20035;-77
2023/08/15 07:57:58;;;;;;;10.02;3.97;;;21.70;91.70;;;;;;5093478;28;20020;-78
2023/08/15 08:00:24;;;;;;;8.25;4.32;;;21.70;91.60;;;;;;5075595;28;20035;-77
2023/08/15 08:02:49;;;;;;;9.45;4.10;;;21.80;91.30;;;;;;5083260;28;20048;-78
2023/08/15 08:05:16;;;;;;;8.90;3.97;;;21.90;91.10;;;;;;5078936;28;20028;-77
2023/08/15 08:07:42;;;;;;;14.13;4.13;;;21.90;90.80;;;;;;5112536;28;20031;-77
2023/08/15 08:10:09;;;;;;;12.65;3.95;;;21.80;90.70;;;;;;5113415;28;20028;-78
2023/08/15 08:12:35;;;;;;;10.60;3.95;;;21.80;90.70;;;;;;5112501;28;20081;-77
2023/08/15 08:15:02;;;;;;;11.30;4.80;;;21.80;90.90;;;;;;5112349;28;20024;-78
2023/08/15 08:17:28;;;;;;;10.02;3.97;;;21.90;91.00;;;;;;5112341;28;20044;-77
2023/08/15 08:19:54;;;;;;;10.88;4.18;;;21.80;91.00;;;;;;5112286;28;20081;-77
2023/08/15 08:22:19;;;;;;;10.85;3.85;;;21.90;91.30;;;;;;5078726;28;20028;-77
2023/08/15 08:24:45;;;;;;;10.00;3.72;;;21.90;91.30;;;;;;5112366;28;20054;-77
2023/08/15 08:27:11;;;;;;;9.50;4.43;;;21.90;90.90;;;;;;5112399;28;20487;-77
2023/08/15 08:29:38;;;;;;;12.73;3.60;;;21.90;90.70;;;;;;5112217;28;20023;-77
2023/08/15 08:32:03;;;;;;;9.80;4.20;;;21.90;91.10;;;;;;5112322;28;20083;-77
2023/08/15 08:34:29;;;;;;;8.77;4.50;;;21.90;90.90;;;;;;5112115;28;20032;-77
2023/08/15 08:36:55;;;;;;;10.43;3.95;;;21.90;90.70;;;;;;5113222;28;20027;-77
2023/08/15 08:39:21;;;;;;;12.77;4.05;;;21.90;90.80;;;;;;5078584;28;20537;-77
2023/08/15 08:41:47;;;;;;;10.30;3.92;;;21.90;91.30;;;;;;5095436;28;20032;-77
2023/08/15 08:44:13;;;;;;;9.75;3.80;;;22.00;90.90;;;;;;5095437;28;20055;-77
2023/08/15 08:46:39;;;;;;;8.13;3.70;;;22.00;90.90;;;;;;5095350;28;20048;-77
2023/08/15 08:49:08;;;;;;;9.55;4.10;;;22.00;90.30;;;;;;5095106;28;20055;-77
2023/08/15 08:51:34;;;;;;;7.32;3.05;;;22.00;90.40;;;;;;5115719;28;20020;-77
2023/08/15 08:54:00;;;;;;;7.68;2.80;;;22.00;90.20;;;;;;5115869;28;20109;-77
2023/08/15 08:56:27;;;;;;;9.10;3.08;;;21.90;90.40;;;;;;5116202;28;20024;-77
2023/08/15 08:59:04;;;;;;;9.30;3.25;;;21.90;90.50;;;;;;5115800;28;20036;-77
2023/08/15 09:01:31;;;;;;;8.18;3.08;;;22.00;90.30;;;;;;5115841;28;20024;-77
2023/08/15 09:03:57;;;;;;;7.20;3.00;;;21.90;90.10;;;;;;5134061;28;20051;-77
2023/08/15 09:06:26;;;;;;;11.32;3.40;;;22.00;90.20;;;;;;5119330;28;20026;-77
2023/08/15 09:08:52;;;;;;;10.48;3.22;;;22.10;90.30;;;;;;5118967;28;20024;-77
2023/08/15 09:11:18;;;;;;;8.18;2.70;;;22.10;90.20;;;;;;5119131;28;20012;-77
2023/08/15 09:13:50;;;;;;;8.30;3.20;;;22.00;90.00;;;;;;5119011;28;20020;-77
2023/08/15 09:16:16;;;;;;;10.00;3.30;;;22.00;89.40;;;;;;5118986;28;20035;-77
2023/08/15 09:18:42;;;;;;;10.80;3.65;;;22.00;89.60;;;;;;5136916;28;20020;-77
2023/08/15 09:21:08;;;;;;;8.82;3.65;;;22.00;90.00;;;;;;5136859;28;20027;-77
2023/08/15 09:23:34;;;;;;;10.35;4.00;;;22.10;90.10;;;;;;5136836;28;20038;-77
2023/08/15 09:26:13;;;;;;;10.93;4.05;;;22.20;90.20;;;;;;5118728;28;20552;-77
2023/08/15 09:28:41;;;;;;;8.85;3.38;;;22.30;90.00;;;;;;5102001;28;20019;-77
2023/08/15 09:31:08;;;;;;;12.95;3.45;;;22.40;90.50;;;;;;5136675;28;20023;-78
2023/08/15 09:33:35;;;;;;;14.10;4.43;;;22.50;90.00;;;;;;5118771;28;20039;-77
2023/08/15 09:36:03;;;;;;;9.90;3.83;;;22.60;90.40;;;;;;5118494;28;20449;-77
2023/08/15 09:38:29;;;;;;;12.05;4.20;;;22.70;90.40;;;;;;5118492;28;20081;-77
2023/08/15 09:40:56;;;;;;;15.77;4.30;;;22.70;89.50;;;;;;5101551;28;20095;-77
2023/08/15 09:43:21;;;;;;;9.95;4.22;;;22.70;89.60;;;;;;5118475;28;20027;-77
2023/08/15 09:45:48;;;;;;;10.55;3.60;;;22.80;89.90;;;;;;5101465;28;20023;-77
2023/08/15 09:48:15;;;;;;;11.18;3.80;;;22.90;89.30;;;;;;5101703;28;20031;-77
2023/08/15 09:50:42;;;;;;;10.30;4.07;;;22.90;88.80;;;;;;5118301;28;20024;-77
2023/08/15 09:53:09;;;;;;;8.80;3.88;;;22.80;88.70;;;;;;5101503;28;20027;-77
2023/08/15 09:55:36;;;;;;;11.02;4.00;;;22.90;89.00;;;;;;5101317;28;20090;-77
2023/08/15 09:58:02;;;;;;;9.95;3.55;;;23.00;88.80;;;;;;5118215;28;20031;-77
2023/08/15 10:00:30;;;;;;;8.45;3.75;;;23.00;89.00;;;;;;5118144;28;20027;-76
2023/08/15 10:03:00;;;;;;;10.70;3.67;;;23.00;88.80;;;;;;5135219;28;20575;-76
2023/08/15 10:05:31;;;;;;;8.82;3.88;;;23.10;89.30;;;;;;5101173;28;20486;-77
2023/08/15 10:07:58;;;;;;;12.60;3.40;;;23.10;88.80;;;;;;5136021;28;20102;-77
2023/08/15 10:10:24;;;;;;;7.15;3.97;;;23.20;89.10;;;;;;5100915;28;20055;-77
2023/08/15 10:12:51;;;;;;;9.93;3.92;;;23.30;88.90;;;;;;5135901;28;20031;-76
2023/08/15 10:15:17;;;;;;;11.82;3.92;;;23.30;89.40;;;;;;5117701;28;20019;-76
2023/08/15 10:17:43;;;;;;;9.85;3.75;;;23.40;89.10;;;;;;5117818;28;20031;-77
2023/08/15 10:20:10;;;;;;;9.50;4.15;;;23.50;88.70;;;;;;5100832;28;20066;-77
2023/08/15 10:22:38;;;;;;;11.15;3.47;;;23.50;87.90;;;;;;5117959;28;20030;-76
2023/08/15 10:25:24;;;;;;;7.35;3.20;;;23.60;88.20;;;;;;5117551;28;20035;-76
2023/08/15 10:27:51;;;;;;;9.68;3.83;;;23.60;87.80;;;;;;5100086;28;20035;-76
2023/08/15 10:30:46;;;;;;;10.70;3.80;;;23.70;87.20;;;;;;5100400;28;20027;-76
2023/08/15 10:33:15;;;;;;;7.97;3.38;;;23.70;86.70;;;;;;5135554;28;20023;-76
2023/08/15 10:35:56;;;;;;;14.10;3.60;;;23.70;85.80;;;;;;5117238;28;20039;-76
2023/08/15 10:38:43;;;;;;;6.45;3.83;;;23.70;85.50;;;;;;5135368;28;20051;-76
2023/08/15 10:41:14;;;;;;;7.10;3.53;;;23.90;88.10;;;;;;5135381;28;20019;-76
2023/08/15 10:43:55;;;;;;;8.40;4.65;;;23.90;86.20;;;;;;5135275;28;20023;-77
2023/08/15 10:46:26;;;;;;;9.20;4.40;;;23.90;86.30;;;;;;5117353;28;20043;-76
2023/08/15 10:49:01;;;;;;;8.60;4.07;;;23.90;85.10;;;;;;5100239;28;20069;-77
2023/08/15 10:51:29;;;;;;;7.90;4.07;;;23.90;84.20;;;;;;5101402;28;20084;-76
2023/08/15 10:53:59;;;;;;;8.52;4.10;;;24.00;84.30;;;;;;5117020;28;20031;-76
2023/08/15 10:56:28;;;;;;;13.60;4.97;;;24.10;84.70;;;;;;5117015;28;20031;-76
2023/08/15 10:58:54;;;;;;;12.38;5.32;;;24.10;84.70;;;;;;5134986;28;20012;-76
2023/08/15 11:01:22;;;;;;;11.70;5.07;;;24.20;84.80;;;;;;5116869;28;20027;-75
2023/08/15 11:03:50;;;;;;;10.50;4.63;;;24.20;85.50;;;;;;5116627;28;20099;-75
2023/08/15 11:06:16;;;;;;;9.77;4.90;;;24.20;85.90;;;;;;5116842;28;20023;-76
2023/08/15 11:08:44;;;;;;;10.00;4.47;;;24.20;85.20;;;;;;5134754;28;20045;-77
2023/08/15 11:11:10;;;;;;;11.38;4.93;;;24.20;84.00;;;;;;5116749;28;20027;-77
2023/08/15 11:13:47;;;;;;;9.95;4.93;;;24.20;83.70;;;;;;5134068;28;20038;-76
2023/08/15 11:16:17;;;;;;;10.77;5.50;;;24.20;83.40;;;;;;5134556;28;20090;-76
2023/08/15 11:18:44;;;;;;;10.95;5.28;;;24.20;82.60;;;;;;5099947;28;20084;-76
2023/08/15 11:21:11;;;;;;;12.98;6.10;;;24.30;83.80;;;;;;5116839;28;20045;-75
2023/08/15 11:23:38;;;;;;;9.70;4.93;;;24.30;84.70;;;;;;5099532;28;20027;-76
2023/08/15 11:26:06;;;;;;;10.35;4.78;;;24.40;85.10;;;;;;5116418;28;20024;-75
2023/08/15 11:28:32;;;;;;;9.32;4.25;;;24.40;84.60;;;;;;5116371;28;20020;-76
2023/08/15 11:30:58;;;;;;;11.23;4.93;;;24.40;83.90;;;;;;5116248;28;20020;-76
2023/08/15 11:33:24;;;;;;;8.85;5.00;;;24.50;84.30;;;;;;5134204;28;20016;-76
2023/08/15 11:35:50;;;;;;;10.38;5.03;;;24.60;84.40;;;;;;5116312;28;20068;-77
2023/08/15 11:38:20;;;;;;;11.07;5.13;;;24.70;84.60;;;;;;5099392;28;20027;-77
2023/08/15 11:40:46;;;;;;;11.65;5.93;;;24.70;83.30;;;;;;5116359;28;20049;-76
2023/08/15 11:43:12;;;;;;;10.80;5.43;;;24.70;83.00;;;;;;5116194;28;20028;-76
2023/08/15 11:45:41;;;;;;;9.38;5.05;;;24.70;82.20;;;;;;5082603;28;20043;-76
2023/08/15 11:48:08;;;;;;;10.43;5.18;;;24.70;81.80;;;;;;5134142;28;20027;-76
2023/08/15 11:50:35;;;;;;;7.43;4.13;;;24.70;83.70;;;;;;5099240;28;20034;-76
2023/08/15 11:53:10;;;;;;;9.00;4.60;;;24.90;82.90;;;;;;5115948;28;20020;-76
2023/08/15 11:55:36;;;;;;;6.97;4.28;;;24.90;82.40;;;;;;5115998;28;20051;-76
2023/08/15 11:58:03;;;;;;;7.47;3.60;;;24.90;83.80;;;;;;5134053;28;20016;-76
2023/08/15 12:00:29;;;;;;;7.18;4.00;;;25.10;82.30;;;;;;5115921;28;20028;-76
2023/08/15 12:02:55;;;;;;;7.80;4.00;;;25.10;80.10;;;;;;5133849;28;20050;-76
2023/08/15 12:05:21;;;;;;;9.00;4.13;;;25.00;79.40;;;;;;5099174;28;20024;-76
2023/08/15 12:07:48;;;;;;;8.38;4.50;;;25.10;80.40;;;;;;5115874;28;20028;-76
2023/08/15 12:10:15;;;;;;;6.75;3.72;;;25.00;78.50;;;;;;5115938;28;20034;-76
2023/08/15 12:12:46;;;;;;;12.10;4.45;;;25.10;79.70;;;;;;5133888;28;20024;-76
2023/08/15 12:15:14;;;;;;;7.97;3.88;;;25.30;78.70;;;;;;5115848;28;20413;-76
2023/08/15 12:17:40;;;;;;;7.85;3.78;;;25.40;78.50;;;;;;5115742;28;20426;-76
2023/08/15 12:20:11;;;;;;;5.97;3.50;;;25.50;78.20;;;;;;5098900;28;20472;-75
2023/08/15 12:22:41;;;;;;;10.17;3.60;;;25.70;78.60;;;;;;5133800;28;20034;-76
2023/08/15 12:25:08;;;;;;;7.55;3.72;;;25.60;78.00;;;;;;5134095;28;20333;-76
2023/08/15 12:27:37;;;;;;;9.32;3.75;;;25.50;78.70;;;;;;5086317;28;20027;-76
2023/08/15 12:30:04;;;;;;;6.55;3.00;;;25.40;77.90;;;;;;5102869;28;20051;-76
2023/08/15 12:32:30;;;;;;;7.68;3.72;;;25.40;78.60;;;;;;5120056;28;20026;-76
2023/08/15 12:34:56;;;;;;;6.43;3.45;;;25.20;78.30;;;;;;5119694;28;20028;-76
2023/08/15 12:37:22;;;;;;;5.15;3.15;;;25.20;79.30;;;;;;5102768;28;20012;-76
2023/08/15 12:39:48;;;;;;;5.95;2.80;;;25.00;79.30;;;;;;5137714;28;20028;-76
2023/08/15 12:42:14;;;;;;;9.98;3.45;;;25.00;79.40;;;;;;5137710;28;20028;-76